Clearwater, NE (68726)

1:15 PM CDT on August 21, 2017 (GMT -0500)
Ewing | | Change Station
Active Advisory: Severe Thunderstorm Watch

Elev 1929 ft 42.24 °N, 98.24 °W | Updated 11 seconds ago

Partly Cloudy
Partly Cloudy
76.8 °F
Feels Like 78 °F
N
4.0
Wind Variable Wind from South
Gusts 9.0 mph

Today
High -- | Low -- °F
--% Chance of Precip.
Yesterday
High -- | Low -- °F
Precip. -- in
Pressure 29.93 in
Visibility 10.0 miles
Clouds Scattered Clouds 2500 ft
Heat Index 78 °F
Dew Point 72 °F
Humidity 85%
Rainfall 0.00 in
Snow Depth Not available.
6:46 AM 8:23 PM
Waning Crescent, 0% visible
METAR KBVN 211755Z AUTO 16007KT 10SM SCT025 26/22 A2993 RMK AO2 LTG DSNT N T02620217 10270 20208
Pressure 29.93 in
Visibility 10.0 miles
Clouds Scattered Clouds 2500 ft
Heat Index 78 °F
Dew Point 72 °F
Humidity 85%
Rainfall 0.00 in
Snow Depth Not available.
6:46 AM 8:23 PM
Waning Crescent, 0% visible
METAR KBVN 211755Z AUTO 16007KT 10SM SCT025 26/22 A2993 RMK AO2 LTG DSNT N T02620217 10270 20208

Get Your Daily Forecast Email!

Thanks for signing up!

Be on the lookout for a verification email in your inbox.

You'll start receiving severe weather alerts in your inbox..

×

10-Day Weather Forecast

Almanac

Astronomy

Aug. 21, 2017 Rise Set
Actual Time
Civil Twilight
Nautical Twilight
Astronomical Twilight
Moon
Length of Visible Light
Length of Day
Tomorrow will be .
, % of the Moon is Illuminated

Today's Extremes

State Highs State Lows

Community

WunderPhotos

Category 6

Welcome to Category 6. This is the collective home for Weather Underground's featured writeups by Dr. Jeff Masters (right), Bob Henson (left), Chris Burt, and other regular contributors.

Nearby

Air Quality

  Air Quality AQ Index Pollutant
Not available.

Snow Depth

Station Depth Elevation

Earthquake Activity

City Distance Mag. Time & Date
Minimum magnitude displayed is 2.5.

Coastal Water Temperatures

Place Temperature

Stations

Nearby Weather Stations

Station Location Temp. Windchill Dew Point Humidity Wind Precip. Elev Updated Type
                   

Watches & Warnings

Severe Thunderstorm Watch
Issued: 1:03 PM CDT Aug. 21, 2017 – National Weather Service

Severe Thunderstorm Watch 460 remains in effect until 700 PM CDT

NE
. Nebraska counties included are

Antelope Boyd Burt
Cedar Cuming Dakota
Dixon Holt Keya Paha
Knox Madison Pierce
rock Stanton Thurston
Wayne